Time;durP1;ratioP1;P1;durP2;ratioP2;P2;SDS_P1;SDS_P2;PMS_P1;PMS_P2;Temp;Humidity;BMP_temperature;BMP_pressure;BME280_temperature;BME280_humidity;BME280_pressure;Samples;Min_cycle;Max_cycle;Signal;HPM_P1;HPM_P2
2023/05/26 00:02:21;;;;;;;6.87;4.53;;;16.30;88.10;;;;;;5013391;28;20470;-83
2023/05/26 00:04:52;;;;;;;8.20;4.93;;;16.40;88.00;;;;;;5009041;28;20486;-84
2023/05/26 00:07:20;;;;;;;10.43;5.10;;;16.40;87.20;;;;;;5012828;28;20450;-84
2023/05/26 00:09:49;;;;;;;7.00;4.80;;;16.20;88.20;;;;;;5014355;28;20515;-85
2023/05/26 00:12:16;;;;;;;5.90;4.30;;;16.10;89.00;;;;;;5011158;28;20458;-85
2023/05/26 00:14:46;;;;;;;6.40;4.87;;;16.10;89.30;;;;;;5015201;28;20508;-86
2023/05/26 00:17:18;;;;;;;9.70;4.83;;;16.10;88.30;;;;;;5011593;28;20455;-87
2023/05/26 00:19:48;;;;;;;8.57;5.60;;;16.00;88.70;;;;;;5019665;28;21028;-86
2023/05/26 00:22:18;;;;;;;9.33;4.73;;;16.00;88.90;;;;;;5024423;28;20470;-86
2023/05/26 00:24:46;;;;;;;5.60;4.73;;;15.80;88.80;;;;;;5032995;28;20462;-84
2023/05/26 00:27:15;;;;;;;12.53;4.70;;;15.80;89.50;;;;;;5036527;28;20460;-83
2023/05/26 00:29:42;;;;;;;5.67;4.67;;;15.70;89.50;;;;;;5036489;28;20447;-84
2023/05/26 00:32:15;;;;;;;14.03;5.07;;;15.80;89.70;;;;;;5037262;28;20494;-84
2023/05/26 00:34:42;;;;;;;10.60;4.70;;;15.70;89.60;;;;;;5035101;28;20497;-83
2023/05/26 00:37:12;;;;;;;10.43;4.93;;;15.70;89.00;;;;;;5033907;28;20477;-85
2023/05/26 00:39:45;;;;;;;7.67;4.47;;;15.70;89.10;;;;;;5021539;28;20447;-85
2023/05/26 00:42:13;;;;;;;6.33;4.90;;;15.60;89.10;;;;;;5015222;28;20473;-85
2023/05/26 00:44:42;;;;;;;7.13;4.10;;;15.50;89.50;;;;;;5013591;28;20469;-85
2023/05/26 00:47:12;;;;;;;10.93;5.20;;;15.30;89.90;;;;;;5010650;28;20469;-83
2023/05/26 00:49:41;;;;;;;11.50;4.20;;;15.40;89.50;;;;;;5017849;28;21155;-84
2023/05/26 00:52:08;;;;;;;8.17;4.57;;;15.40;89.60;;;;;;5023110;28;20958;-83
2023/05/26 00:54:38;;;;;;;6.10;3.97;;;15.40;89.30;;;;;;5010314;28;20469;-84
2023/05/26 00:57:07;;;;;;;9.30;4.23;;;15.30;90.00;;;;;;5011189;28;20466;-85
2023/05/26 00:59:35;;;;;;;9.63;4.40;;;15.20;89.90;;;;;;5019179;28;20468;-84
2023/05/26 01:02:05;;;;;;;9.83;3.83;;;15.30;90.00;;;;;;5015257;28;20498;-86
2023/05/26 01:04:35;;;;;;;6.77;3.90;;;15.10;90.00;;;;;;5017631;28;20450;-85
2023/05/26 01:07:02;;;;;;;7.80;4.30;;;15.20;90.20;;;;;;5009826;28;20489;-84
2023/05/26 01:09:32;;;;;;;6.53;4.23;;;15.00;90.40;;;;;;5016069;28;20446;-85
2023/05/26 01:12:05;;;;;;;10.57;4.53;;;15.20;90.70;;;;;;5015465;28;20486;-84
2023/05/26 01:14:52;;;;;;;10.47;4.47;;;15.30;90.10;;;;;;5013614;28;20458;-82
2023/05/26 01:17:24;;;;;;;7.17;3.83;;;15.20;89.80;;;;;;5017160;28;21326;-85
2023/05/26 01:20:26;;;;;;;9.90;4.53;;;15.10;90.10;;;;;;5014898;28;20454;-85
2023/05/26 01:23:11;;;;;;;7.90;3.70;;;14.90;90.40;;;;;;5011183;28;20477;-86
2023/05/26 01:26:07;;;;;;;11.63;3.43;;;14.90;90.50;;;;;;5016388;28;20852;-85
2023/05/26 01:28:37;;;;;;;7.73;4.27;;;14.80;90.90;;;;;;5002770;28;20826;-85
2023/05/26 01:31:07;;;;;;;11.70;3.30;;;14.90;91.00;;;;;;5006766;28;20470;-85
2023/05/26 01:33:35;;;;;;;8.33;4.70;;;14.70;90.80;;;;;;5016929;28;20482;-84
2023/05/26 01:36:08;;;;;;;8.87;3.20;;;14.70;90.70;;;;;;5023378;28;20883;-85
2023/05/26 01:38:35;;;;;;;14.20;3.20;;;14.60;90.70;;;;;;5020742;28;20450;-86
2023/05/26 01:41:18;;;;;;;6.17;3.07;;;14.60;90.40;;;;;;5012855;28;20486;-85
2023/05/26 01:43:52;;;;;;;9.00;3.07;;;14.60;90.60;;;;;;5016215;28;20820;-85
2023/05/26 01:46:36;;;;;;;8.80;2.70;;;14.60;90.60;;;;;;5017827;28;20501;-86
2023/05/26 01:49:08;;;;;;;10.40;3.90;;;14.50;90.70;;;;;;5013173;28;20496;-86
2023/05/26 01:51:37;;;;;;;7.93;2.80;;;14.50;90.80;;;;;;5019306;28;20625;-86
2023/05/26 01:54:08;;;;;;;7.53;2.97;;;14.60;90.30;;;;;;5018000;28;20529;-85
2023/05/26 01:56:39;;;;;;;8.47;2.90;;;14.40;90.40;;;;;;5014819;28;20521;-86
2023/05/26 01:59:07;;;;;;;8.10;2.90;;;14.30;90.70;;;;;;5016886;28;20505;-86
2023/05/26 02:01:34;;;;;;;9.13;3.10;;;14.30;90.90;;;;;;5021078;28;20446;-86
2023/05/26 02:04:01;;;;;;;11.60;3.30;;;14.20;90.80;;;;;;5021683;28;20478;-84
2023/05/26 02:06:28;;;;;;;8.03;3.20;;;14.30;90.70;;;;;;5010753;28;20548;-84
2023/05/26 02:08:55;;;;;;;9.67;3.00;;;14.40;90.70;;;;;;5006015;28;20558;-83
2023/05/26 02:11:25;;;;;;;5.03;2.50;;;14.30;90.60;;;;;;5016834;28;20437;-85
2023/05/26 02:13:52;;;;;;;6.43;2.87;;;14.10;90.70;;;;;;5023706;28;20453;-87
2023/05/26 02:16:21;;;;;;;8.07;2.60;;;14.20;91.10;;;;;;5016721;28;21131;-86
2023/05/26 02:18:49;;;;;;;6.63;2.87;;;14.10;91.10;;;;;;5014257;28;21018;-86
2023/05/26 02:21:16;;;;;;;8.30;2.70;;;14.30;90.70;;;;;;5014021;28;21074;-85
2023/05/26 02:23:46;;;;;;;7.83;2.57;;;14.30;90.80;;;;;;5011164;28;20493;-84
2023/05/26 02:26:13;;;;;;;8.80;3.00;;;14.20;90.90;;;;;;5013670;28;20514;-85
2023/05/26 02:28:41;;;;;;;7.60;2.10;;;14.10;90.90;;;;;;5014585;28;20815;-84
2023/05/26 02:31:09;;;;;;;6.63;2.57;;;14.20;91.10;;;;;;5013419;28;20562;-84
2023/05/26 02:33:40;;;;;;;9.90;3.60;;;14.20;91.00;;;;;;5016128;28;20462;-84
2023/05/26 02:36:07;;;;;;;11.33;2.80;;;14.00;91.10;;;;;;5008976;28;20482;-85
2023/05/26 02:38:35;;;;;;;7.83;3.07;;;14.00;91.30;;;;;;5000942;28;20451;-84
2023/05/26 02:41:02;;;;;;;8.67;3.33;;;14.00;91.50;;;;;;5013424;28;20536;-86
2023/05/26 02:43:32;;;;;;;7.80;2.47;;;13.90;91.70;;;;;;5013944;28;20478;-86
2023/05/26 02:45:59;;;;;;;5.43;2.70;;;13.90;91.80;;;;;;5012631;28;20481;-84
2023/05/26 02:48:27;;;;;;;5.57;2.60;;;14.00;91.70;;;;;;5013478;28;20972;-86
2023/05/26 02:50:55;;;;;;;8.27;2.40;;;14.00;91.60;;;;;;5013843;28;20450;-84
2023/05/26 02:53:22;;;;;;;9.47;2.47;;;13.90;91.50;;;;;;5013087;28;20465;-85
2023/05/26 02:55:49;;;;;;;8.33;2.87;;;13.80;91.90;;;;;;5013611;28;20478;-84
2023/05/26 02:58:16;;;;;;;5.17;2.13;;;13.80;92.20;;;;;;5013307;28;20517;-85
2023/05/26 03:00:46;;;;;;;9.13;2.40;;;13.70;92.30;;;;;;5013271;28;20525;-81
2023/05/26 03:03:13;;;;;;;8.23;3.70;;;13.90;91.70;;;;;;5000888;28;20478;-86
2023/05/26 03:05:41;;;;;;;10.40;2.70;;;13.80;91.60;;;;;;5012835;28;20981;-85
2023/05/26 03:08:10;;;;;;;10.17;2.90;;;13.60;91.80;;;;;;5006832;28;20977;-85
2023/05/26 03:10:43;;;;;;;6.70;2.10;;;13.70;92.00;;;;;;5015052;28;20454;-82
2023/05/26 03:13:11;;;;;;;9.73;2.37;;;13.70;91.80;;;;;;5009598;28;20454;-85
2023/05/26 03:15:42;;;;;;;7.37;2.60;;;13.70;91.80;;;;;;5013096;28;20478;-86
2023/05/26 03:18:09;;;;;;;5.93;2.40;;;13.70;91.60;;;;;;5009761;28;20480;-84
2023/05/26 03:20:36;;;;;;;7.73;2.03;;;13.70;91.60;;;;;;5011379;28;20456;-83
2023/05/26 03:23:03;;;;;;;6.03;2.00;;;13.60;91.70;;;;;;5018491;28;20556;-86
2023/05/26 03:25:34;;;;;;;6.83;2.07;;;13.50;91.80;;;;;;5024307;28;20497;-84
2023/05/26 03:28:01;;;;;;;7.00;2.80;;;13.50;92.00;;;;;;5035682;28;20458;-84
2023/05/26 03:30:30;;;;;;;5.23;2.47;;;13.40;92.10;;;;;;5029950;28;20450;-86
2023/05/26 03:33:01;;;;;;;4.90;2.17;;;13.40;92.20;;;;;;5023414;28;20799;-85
2023/05/26 03:35:31;;;;;;;9.13;2.60;;;13.60;92.20;;;;;;5020408;28;20473;-86
2023/05/26 03:37:58;;;;;;;8.80;3.13;;;13.70;91.80;;;;;;5020119;28;20450;-86
2023/05/26 03:40:24;;;;;;;7.93;3.17;;;13.80;91.50;;;;;;5021786;28;20799;-86
2023/05/26 03:42:51;;;;;;;10.20;2.73;;;13.60;91.20;;;;;;5019737;28;20843;-85
2023/05/26 03:45:18;;;;;;;5.40;2.60;;;13.60;91.70;;;;;;5018685;28;20500;-84
2023/05/26 03:47:48;;;;;;;10.17;3.17;;;13.60;92.00;;;;;;5012433;28;20454;-85
2023/05/26 03:50:15;;;;;;;9.60;3.40;;;13.50;92.00;;;;;;5018391;28;20468;-85
2023/05/26 03:52:42;;;;;;;4.93;2.13;;;13.40;92.10;;;;;;5010694;28;20470;-85
2023/05/26 03:55:12;;;;;;;10.90;2.87;;;13.30;92.40;;;;;;5030846;28;20497;-85
2023/05/26 03:57:42;;;;;;;5.83;2.40;;;13.60;92.40;;;;;;5014900;28;20847;-86
2023/05/26 04:00:10;;;;;;;7.30;2.10;;;13.50;92.30;;;;;;5032678;28;20463;-85
2023/05/26 04:02:37;;;;;;;10.57;2.23;;;13.40;92.20;;;;;;5013475;28;20572;-85
2023/05/26 04:05:04;;;;;;;10.50;2.70;;;13.50;92.40;;;;;;5013977;28;20481;-86
2023/05/26 04:07:33;;;;;;;10.07;3.00;;;13.40;92.30;;;;;;5016366;28;20453;-86
2023/05/26 04:10:00;;;;;;;5.33;2.13;;;13.60;92.30;;;;;;5032918;28;20476;-86
2023/05/26 04:12:28;;;;;;;7.47;3.00;;;13.70;91.80;;;;;;5010853;28;20580;-86
2023/05/26 04:14:57;;;;;;;10.53;3.50;;;13.60;91.80;;;;;;5018755;28;20466;-86
2023/05/26 04:17:24;;;;;;;6.47;2.17;;;13.40;91.90;;;;;;5015645;28;20466;-86
2023/05/26 04:19:54;;;;;;;17.07;3.47;;;13.50;92.10;;;;;;5016188;28;20880;-85
2023/05/26 04:22:22;;;;;;;8.70;2.60;;;13.50;92.00;;;;;;5018086;28;20442;-85
2023/05/26 04:24:49;;;;;;;14.00;2.87;;;13.50;92.10;;;;;;5015031;28;20548;-85
2023/05/26 04:27:18;;;;;;;9.90;2.80;;;13.60;92.30;;;;;;5014474;28;20974;-85
2023/05/26 04:29:45;;;;;;;9.43;2.77;;;13.60;92.30;;;;;;5013191;28;20527;-84
2023/05/26 04:32:15;;;;;;;5.97;2.37;;;13.60;92.50;;;;;;5012994;28;21002;-86
2023/05/26 04:34:44;;;;;;;10.13;2.20;;;13.60;92.20;;;;;;5015154;28;20524;-85
2023/05/26 04:37:11;;;;;;;6.87;2.97;;;13.50;92.20;;;;;;5014375;28;20890;-80
2023/05/26 04:39:38;;;;;;;7.97;2.77;;;13.40;92.40;;;;;;5029033;28;20562;-84
2023/05/26 04:42:08;;;;;;;9.10;3.53;;;13.30;92.80;;;;;;5014181;28;20466;-85
2023/05/26 04:44:40;;;;;;;11.97;3.53;;;13.40;93.00;;;;;;5030884;28;20496;-83
2023/05/26 04:47:08;;;;;;;7.23;2.70;;;13.30;93.10;;;;;;5010962;28;20788;-86
2023/05/26 04:49:36;;;;;;;11.33;3.37;;;13.50;93.30;;;;;;5016534;28;20493;-85
2023/05/26 04:52:04;;;;;;;5.27;3.10;;;13.60;92.90;;;;;;5016212;28;20489;-85
2023/05/26 04:54:34;;;;;;;11.70;3.80;;;13.50;92.80;;;;;;5012618;28;20465;-85
2023/05/26 04:57:01;;;;;;;9.33;3.70;;;13.40;93.00;;;;;;5025031;28;20451;-85
2023/05/26 04:59:29;;;;;;;6.87;3.57;;;13.40;93.10;;;;;;5019927;28;20528;-85
2023/05/26 05:01:58;;;;;;;8.07;3.17;;;13.70;92.50;;;;;;5019502;28;20461;-85
2023/05/26 05:04:25;;;;;;;8.13;3.33;;;13.50;92.80;;;;;;5017527;28;20486;-85
2023/05/26 05:06:54;;;;;;;15.80;4.30;;;13.50;92.80;;;;;;5019366;28;20548;-85
2023/05/26 05:09:21;;;;;;;11.90;3.97;;;13.40;93.00;;;;;;5017467;28;20504;-83
2023/05/26 05:11:48;;;;;;;14.90;4.60;;;13.60;93.00;;;;;;5013073;28;21199;-85
2023/05/26 05:14:18;;;;;;;9.33;4.40;;;13.60;93.10;;;;;;5013433;28;20463;-85
2023/05/26 05:16:48;;;;;;;15.63;4.20;;;13.60;93.20;;;;;;5013527;28;20470;-84
2023/05/26 05:19:18;;;;;;;10.90;3.93;;;13.60;93.30;;;;;;5007745;28;20454;-84
2023/05/26 05:21:45;;;;;;;10.80;4.27;;;13.70;93.10;;;;;;5014097;28;20488;-84
2023/05/26 05:24:12;;;;;;;12.83;4.57;;;13.80;92.50;;;;;;5016209;28;20489;-83
2023/05/26 05:26:39;;;;;;;14.60;4.40;;;13.90;92.50;;;;;;5014672;28;20470;-84
2023/05/26 05:29:07;;;;;;;15.97;5.90;;;13.60;92.70;;;;;;5011374;28;20969;-84
2023/05/26 05:31:34;;;;;;;11.70;4.73;;;13.50;93.20;;;;;;5016347;28;20461;-84
2023/05/26 05:34:02;;;;;;;16.37;5.13;;;13.90;92.80;;;;;;5015508;28;20569;-85
2023/05/26 05:36:29;;;;;;;12.53;4.50;;;13.70;92.70;;;;;;5013170;28;20493;-83
2023/05/26 05:38:56;;;;;;;15.20;5.37;;;13.90;92.70;;;;;;5005438;28;21006;-85
2023/05/26 05:41:24;;;;;;;13.80;4.90;;;14.10;92.80;;;;;;5014516;28;20951;-85
2023/05/26 05:43:56;;;;;;;9.90;4.40;;;14.10;92.70;;;;;;5013972;28;20504;-86
2023/05/26 05:46:24;;;;;;;13.60;5.07;;;14.10;92.50;;;;;;5018422;28;20524;-86
2023/05/26 05:48:56;;;;;;;11.90;4.80;;;14.10;92.30;;;;;;5020871;28;20485;-84
2023/05/26 05:51:26;;;;;;;11.23;4.67;;;14.30;92.40;;;;;;5034618;28;20553;-85
2023/05/26 05:53:56;;;;;;;17.97;6.00;;;14.20;92.20;;;;;;5019834;28;20458;-85
2023/05/26 05:56:23;;;;;;;13.30;5.17;;;14.30;92.50;;;;;;5010731;28;20501;-86
2023/05/26 05:58:52;;;;;;;12.77;5.20;;;14.50;92.10;;;;;;5017381;28;20462;-86
2023/05/26 06:01:19;;;;;;;10.70;5.27;;;14.20;92.10;;;;;;5016570;28;20462;-85
2023/05/26 06:03:47;;;;;;;10.47;5.20;;;14.20;92.20;;;;;;5025543;28;20876;-83
2023/05/26 06:06:15;;;;;;;8.40;4.90;;;14.30;92.10;;;;;;5018723;28;20501;-83
2023/05/26 06:08:45;;;;;;;13.20;5.97;;;14.50;92.50;;;;;;5012729;28;20500;-86
2023/05/26 06:11:17;;;;;;;12.27;5.63;;;14.40;92.20;;;;;;5016378;28;20454;-86
2023/05/26 06:13:44;;;;;;;9.77;5.60;;;14.50;92.20;;;;;;5014260;28;20458;-86
2023/05/26 06:16:14;;;;;;;8.20;5.03;;;14.70;91.90;;;;;;5015581;28;20524;-84
2023/05/26 06:18:43;;;;;;;12.20;5.20;;;14.60;91.40;;;;;;5020476;28;20469;-87
2023/05/26 06:21:11;;;;;;;16.03;6.07;;;14.80;91.60;;;;;;5025193;28;20463;-85
2023/05/26 06:23:41;;;;;;;15.57;5.97;;;15.20;91.00;;;;;;5030576;28;20459;-85
2023/05/26 06:26:08;;;;;;;12.03;6.20;;;15.10;90.70;;;;;;5014670;28;20475;-85
2023/05/26 06:28:38;;;;;;;10.27;5.53;;;15.30;91.00;;;;;;5023538;28;20454;-85
2023/05/26 06:31:13;;;;;;;16.33;6.17;;;15.40;90.30;;;;;;5022090;28;20489;-85
2023/05/26 06:33:43;;;;;;;12.20;5.50;;;15.40;90.30;;;;;;5020708;28;20469;-86
2023/05/26 06:36:11;;;;;;;14.80;5.30;;;15.20;90.50;;;;;;5017465;28;20528;-86
2023/05/26 06:38:46;;;;;;;8.00;4.77;;;15.40;90.70;;;;;;5016467;28;20557;-84
2023/05/26 06:41:13;;;;;;;16.00;6.50;;;15.40;90.40;;;;;;5028036;28;20434;-82
2023/05/26 06:43:40;;;;;;;17.50;7.43;;;15.50;90.20;;;;;;5022214;28;20501;-85
2023/05/26 06:46:07;;;;;;;12.80;6.37;;;15.50;90.20;;;;;;5027037;28;20533;-83
2023/05/26 06:48:34;;;;;;;14.03;6.33;;;15.70;90.00;;;;;;5035082;28;20442;-86
2023/05/26 06:51:03;;;;;;;14.27;6.27;;;15.60;90.10;;;;;;5034542;28;20470;-82
2023/05/26 06:53:30;;;;;;;14.03;6.37;;;15.80;89.70;;;;;;5034876;28;20505;-85
2023/05/26 06:56:00;;;;;;;15.10;7.33;;;16.00;88.80;;;;;;5034694;28;20466;-83
2023/05/26 06:58:27;;;;;;;8.67;5.17;;;15.80;87.90;;;;;;5034748;28;20466;-83
2023/05/26 07:01:00;;;;;;;12.27;5.97;;;15.70;89.90;;;;;;5024776;28;20445;-85
2023/05/26 07:03:28;;;;;;;17.20;5.57;;;15.90;88.90;;;;;;5027519;28;20536;-83
2023/05/26 07:05:56;;;;;;;15.07;6.60;;;16.00;88.80;;;;;;5035595;28;20482;-84
2023/05/26 07:08:24;;;;;;;13.67;6.20;;;15.90;89.00;;;;;;5026976;28;20450;-82
2023/05/26 07:10:51;;;;;;;12.00;5.87;;;16.20;89.30;;;;;;5034338;28;20477;-84
2023/05/26 07:13:19;;;;;;;10.10;5.27;;;16.40;88.70;;;;;;5031375;28;20466;-84
2023/05/26 07:15:51;;;;;;;14.70;6.40;;;16.30;88.30;;;;;;5033094;28;20473;-84
2023/05/26 07:18:18;;;;;;;10.63;5.83;;;16.10;88.40;;;;;;5095571;22;21464;-84
2023/05/26 07:20:47;;;;;;;13.33;5.17;;;16.20;88.20;;;;;;5034020;28;20973;-85
2023/05/26 07:23:19;;;;;;;12.10;4.80;;;16.30;88.30;;;;;;5040346;28;20514;-85
2023/05/26 07:25:48;;;;;;;9.93;6.30;;;16.50;87.20;;;;;;5050396;28;20565;-86
2023/05/26 07:28:41;;;;;;;10.93;5.30;;;16.70;86.80;;;;;;5043617;28;20483;-85
2023/05/26 07:31:31;;;;;;;10.50;5.07;;;17.00;86.30;;;;;;5034637;28;20464;-86
2023/05/26 07:34:13;;;;;;;18.20;5.37;;;16.80;85.70;;;;;;5044761;28;20429;-86
2023/05/26 07:36:43;;;;;;;12.00;6.10;;;16.70;86.00;;;;;;5055411;28;20497;-85
2023/05/26 07:39:13;;;;;;;13.67;5.50;;;17.10;85.00;;;;;;5051769;28;20436;-84
2023/05/26 07:41:52;;;;;;;10.20;5.33;;;17.10;84.70;;;;;;5040346;28;20461;-84
2023/05/26 07:44:23;;;;;;;11.23;4.67;;;17.20;84.50;;;;;;5050628;28;20482;-83
2023/05/26 07:46:50;;;;;;;11.27;5.27;;;17.40;84.20;;;;;;5045610;28;20465;-84
2023/05/26 07:49:20;;;;;;;9.93;5.37;;;17.40;83.60;;;;;;5037231;28;20465;-84
2023/05/26 07:51:52;;;;;;;13.40;5.37;;;17.10;84.50;;;;;;5035303;28;20450;-83
2023/05/26 07:54:36;;;;;;;14.57;6.00;;;17.70;83.30;;;;;;5033934;28;20441;-86
2023/05/26 07:57:17;;;;;;;15.03;5.90;;;17.60;81.90;;;;;;5030283;28;20457;-84
2023/05/26 07:59:58;;;;;;;14.17;5.33;;;17.30;82.60;;;;;;5031011;28;20496;-84
2023/05/26 08:02:38;;;;;;;13.00;5.30;;;17.30;84.10;;;;;;5030609;28;20540;-86
2023/05/26 08:05:26;;;;;;;13.07;5.33;;;17.80;84.30;;;;;;5035586;28;20481;-84
2023/05/26 08:07:54;;;;;;;7.93;4.97;;;18.30;80.50;;;;;;5036537;28;20449;-85
2023/05/26 08:10:23;;;;;;;8.77;5.17;;;18.00;80.90;;;;;;5031959;28;20523;-84
2023/05/26 08:12:53;;;;;;;8.93;4.80;;;17.90;81.50;;;;;;5037501;28;20479;-84
2023/05/26 08:15:27;;;;;;;8.77;4.60;;;17.90;81.30;;;;;;5039232;28;21072;-84
2023/05/26 08:17:56;;;;;;;11.73;5.10;;;18.60;80.00;;;;;;5050164;28;20881;-85
2023/05/26 08:20:23;;;;;;;12.40;5.73;;;19.00;79.50;;;;;;5036119;28;20457;-84
2023/05/26 08:22:51;;;;;;;7.67;5.47;;;19.30;76.80;;;;;;5028857;28;20550;-85
2023/05/26 08:28:59;;;;;;;11.20;5.73;;;20.20;74.30;;;;;;5030247;28;20452;-86
2023/05/26 08:31:54;;;;;;;9.20;5.10;;;20.40;71.60;;;;;;5030461;28;20624;-84
2023/05/26 08:34:42;;;;;;;12.03;5.07;;;19.60;71.90;;;;;;5035697;28;22205;-86
2023/05/26 08:38:00;;;;;;;14.47;5.50;;;20.60;71.50;;;;;;5046817;28;20662;-85
2023/05/26 08:41:00;;;;;;;11.47;5.43;;;20.70;69.30;;;;;;4989891;28;20448;-84
2023/05/26 08:43:56;;;;;;;12.53;6.90;;;20.90;68.30;;;;;;5038505;28;20472;-84
2023/05/26 08:46:33;;;;;;;10.10;5.27;;;21.60;66.30;;;;;;5032676;28;20469;-85
2023/05/26 08:49:01;;;;;;;8.97;5.33;;;22.60;63.80;;;;;;5030691;28;21016;-86
2023/05/26 08:51:31;;;;;;;8.60;4.90;;;23.50;59.80;;;;;;5036920;28;20442;-86
2023/05/26 08:54:02;;;;;;;10.53;5.17;;;23.70;58.20;;;;;;5027460;28;20449;-85
2023/05/26 08:56:29;;;;;;;8.13;5.33;;;23.20;57.60;;;;;;5029373;28;20469;-85
2023/05/26 08:59:03;;;;;;;11.07;5.30;;;23.50;58.00;;;;;;5032686;28;20458;-85
2023/05/26 09:01:47;;;;;;;8.00;5.27;;;24.90;56.00;;;;;;5028340;28;20469;-85
2023/05/26 09:04:42;;;;;;;13.43;6.57;;;25.10;53.90;;;;;;5031581;28;20489;-85
2023/05/26 09:07:15;;;;;;;10.30;5.50;;;25.20;53.30;;;;;;5027940;28;20433;-82
2023/05/26 09:09:48;;;;;;;9.03;5.10;;;26.10;52.00;;;;;;5029869;28;20450;-83
2023/05/26 09:12:34;;;;;;;11.23;5.70;;;26.20;51.90;;;;;;5030494;28;20807;-85
2023/05/26 09:15:19;;;;;;;8.87;5.40;;;26.50;50.60;;;;;;5038009;28;20556;-84
2023/05/26 09:26:09;;;;;;;;;;;;;;;;;;;;;
2023/05/26 09:36:55;;;;;;;8.97;5.27;;;26.70;49.00;;;;;;5014746;28;20418;-85
2023/05/26 09:43:38;;;;;;;9.97;4.50;;;26.80;48.50;;;;;;4959511;28;20436;-84
2023/05/26 09:46:36;;;;;;;6.70;4.27;;;27.90;47.10;;;;;;5009839;28;20461;-86
2023/05/26 09:49:24;;;;;;;10.50;4.57;;;27.10;46.80;;;;;;5034869;28;20441;-85
2023/05/26 09:52:01;;;;;;;6.63;4.23;;;28.00;47.00;;;;;;5031372;28;20473;-85
2023/05/26 09:54:51;;;;;;;9.33;5.87;;;27.70;46.60;;;;;;5034480;28;20452;-85
2023/05/26 09:57:54;;;;;;;10.37;5.20;;;27.30;46.80;;;;;;5035718;28;20453;-86
2023/05/26 10:03:52;;;;;;;8.07;4.53;;;27.10;46.80;;;;;;5016453;28;20945;-86
2023/05/26 10:06:31;;;;;;;8.53;3.80;;;27.80;46.70;;;;;;5030343;28;20470;-85
2023/05/26 10:09:00;;;;;;;9.10;4.60;;;27.50;46.60;;;;;;5033453;28;20433;-84
2023/05/26 10:11:41;;;;;;;7.50;4.40;;;27.40;46.50;;;;;;5029043;28;20429;-85
2023/05/26 10:14:35;;;;;;;8.50;3.80;;;29.00;45.40;;;;;;5028341;28;20445;-85
2023/05/26 10:17:14;;;;;;;8.03;3.80;;;29.50;43.60;;;;;;5022543;28;20448;-84
2023/05/26 10:19:54;;;;;;;6.73;3.87;;;29.20;43.40;;;;;;5031777;28;20484;-85
2023/05/26 10:23:09;;;;;;;6.63;3.87;;;29.20;43.30;;;;;;5043387;28;20531;-84
2023/05/26 10:26:13;;;;;;;5.23;3.70;;;28.80;44.00;;;;;;5025329;28;20473;-84
2023/05/26 10:29:07;;;;;;;7.10;3.90;;;28.00;44.80;;;;;;5035213;28;20860;-85
2023/05/26 10:31:55;;;;;;;9.10;4.23;;;27.50;45.80;;;;;;5027629;28;20537;-85
2023/05/26 10:34:45;;;;;;;6.97;4.13;;;28.30;44.70;;;;;;5033553;28;20452;-84
2023/05/26 10:37:52;;;;;;;10.03;4.50;;;28.40;44.30;;;;;;5030336;28;20464;-85
2023/05/26 10:41:01;;;;;;;7.07;3.53;;;27.80;45.30;;;;;;5012669;28;20534;-85
2023/05/26 10:47:17;;;;;;;6.37;4.20;;;28.90;44.00;;;;;;5022428;22;20504;-84
2023/05/26 10:50:36;;;;;;;7.00;4.33;;;28.40;44.20;;;;;;5010512;28;20450;-86
2023/05/26 10:53:57;;;;;;;8.80;4.17;;;27.80;44.80;;;;;;5011345;28;20858;-85
2023/05/26 10:57:13;;;;;;;6.67;3.77;;;28.10;45.00;;;;;;5006680;28;20482;-85
2023/05/26 11:00:43;;;;;;;;;;;;;;;;;;;;;
2023/05/26 11:03:57;;;;;;;4.40;3.23;;;26.90;46.10;;;;;;4988151;28;20414;-84
2023/05/26 11:07:10;;;;;;;6.20;3.93;;;26.70;46.10;;;;;;5106046;22;21330;-85
2023/05/26 11:14:15;;;;;;;;;;;;;;;;;;;;;
2023/05/26 11:28:17;;;;;;;8.20;4.60;;;27.30;45.20;;;;;;1085912;26;20747;-84
2023/05/26 11:51:09;;;;;;;5.63;3.63;;;27.10;45.80;;;;;;5015896;28;20485;-84
2023/05/26 11:54:14;;;;;;;7.60;4.50;;;27.00;46.20;;;;;;5005898;28;20470;-85
2023/05/26 11:57:07;;;;;;;5.90;3.50;;;26.70;46.00;;;;;;4993464;28;20485;-87
2023/05/26 12:00:05;;;;;;;;;;;;;;;;;;;;;
2023/05/26 12:03:07;;;;;;;7.33;3.50;;;25.90;47.30;;;;;;4926432;29;20454;-86
2023/05/26 12:06:33;;;;;;;5.43;3.33;;;26.40;47.40;;;;;;4903290;29;20574;-85
2023/05/26 12:09:47;;;;;;;4.50;3.23;;;26.50;46.80;;;;;;4841095;29;20485;-85
2023/05/26 12:13:08;;;;;;;6.10;3.33;;;26.00;46.70;;;;;;4847206;29;20463;-87
2023/05/26 12:16:03;;;;;;;6.73;3.93;;;26.20;47.10;;;;;;4881022;29;20645;-86
2023/05/26 12:19:26;;;;;;;6.70;3.53;;;26.40;46.70;;;;;;4888770;29;20459;-87
2023/05/26 12:22:38;;;;;;;7.37;3.83;;;26.30;47.50;;;;;;4850141;29;20464;-86
2023/05/26 12:25:49;;;;;;;7.70;3.50;;;26.90;46.00;;;;;;4850054;29;20547;-86
2023/05/26 12:28:36;;;;;;;6.87;3.67;;;27.40;45.80;;;;;;4864092;29;20516;-87
2023/05/26 12:31:40;;;;;;;10.13;3.67;;;27.30;45.40;;;;;;4854525;29;20471;-86
2023/05/26 12:38:04;;;;;;;6.60;3.30;;;27.20;45.70;;;;;;4882302;29;20462;-86
2023/05/26 12:41:07;;;;;;;6.90;3.60;;;26.50;46.30;;;;;;4881458;29;20489;-87
2023/05/26 12:44:31;;;;;;;5.70;3.77;;;26.10;47.40;;;;;;4950282;29;20540;-85
2023/05/26 12:47:39;;;;;;;3.40;3.10;;;26.60;46.50;;;;;;4943643;29;20434;-86
2023/05/26 12:50:38;;;;;;;6.37;3.90;;;26.40;47.30;;;;;;4942258;29;20452;-86
2023/05/26 12:53:42;;;;;;;5.90;3.00;;;27.00;45.70;;;;;;4908665;28;20480;-86
2023/05/26 12:56:28;;;;;;;6.93;3.40;;;26.80;46.10;;;;;;4943775;29;20477;-86
2023/05/26 13:00:07;;;;;;;5.90;3.60;;;26.70;46.30;;;;;;4919158;29;20708;-87
2023/05/26 13:03:24;;;;;;;;;;;;;;;;;;;;;
2023/05/26 13:06:29;;;;;;;5.07;4.33;;;26.80;46.00;;;;;;4955215;29;20567;-85
2023/05/26 13:19:55;;;;;;;6.00;4.30;;;25.60;48.90;;;;;;4998689;28;20978;-88
2023/05/26 13:22:45;;;;;;;7.60;4.10;;;26.00;47.70;;;;;;5002802;28;20464;-85
2023/05/26 13:26:02;;;;;;;7.87;3.80;;;25.60;47.70;;;;;;5583210;22;21866;-86
2023/05/26 13:32:27;;;;;;;7.47;3.50;;;25.90;48.30;;;;;;5021897;28;20448;-86
2023/05/26 13:35:21;;;;;;;6.83;3.57;;;26.40;47.40;;;;;;5032000;28;20477;-86
2023/05/26 13:38:23;;;;;;;6.00;3.00;;;26.30;47.30;;;;;;5027238;28;20472;-87
2023/05/26 13:41:42;;;;;;;;;;;;;;;;;;;;;
2023/05/26 13:47:14;;;;;;;8.23;3.60;;;26.20;45.90;;;;;;5039718;22;20490;-86
2023/05/26 13:53:23;;;;;;;6.67;3.27;;;25.90;46.60;;;;;;5016484;28;20450;-86
2023/05/26 13:59:57;;;;;;;8.40;3.33;;;25.70;46.80;;;;;;5014581;28;20458;-86
2023/05/26 14:03:01;;;;;;;4.23;3.27;;;25.70;47.00;;;;;;5018692;28;20412;-87
2023/05/26 14:05:48;;;;;;;7.43;3.73;;;25.50;47.70;;;;;;4970249;28;20490;-86
2023/05/26 14:08:41;;;;;;;9.77;3.03;;;25.60;46.90;;;;;;4948809;28;20491;-87
2023/05/26 14:12:00;;;;;;;5.77;2.97;;;25.10;47.50;;;;;;4961531;28;20487;-87
2023/05/26 14:15:12;;;;;;;6.37;3.37;;;25.20;46.80;;;;;;4946174;28;20436;-86
2023/05/26 14:18:01;;;;;;;8.53;3.77;;;24.90;47.20;;;;;;4969114;28;20444;-85
2023/05/26 14:24:07;;;;;;;7.77;2.97;;;24.60;48.10;;;;;;4943942;28;20463;-86
2023/05/26 14:27:17;;;;;;;5.50;2.30;;;24.60;48.30;;;;;;5041352;23;20482;-87
2023/05/26 14:30:17;;;;;;;;;;;;;;;;;;;;;
2023/05/26 14:33:16;;;;;;;8.83;3.70;;;24.80;47.30;;;;;;5025523;28;20472;-86
2023/05/26 14:36:26;;;;;;;4.37;2.60;;;24.60;48.00;;;;;;5025863;28;20485;-86
2023/05/26 14:39:27;;;;;;;6.77;3.10;;;24.60;48.00;;;;;;5035924;28;20496;-86
2023/05/26 14:42:09;;;;;;;5.60;3.10;;;24.40;48.40;;;;;;5039308;28;20453;-86
2023/05/26 14:47:55;;;;;;;5.40;3.00;;;24.50;47.90;;;;;;5045056;22;20494;-86
2023/05/26 14:50:56;;;;;;;5.00;2.47;;;24.40;47.70;;;;;;5031403;28;20434;-85
2023/05/26 14:54:09;;;;;;;6.20;2.60;;;24.30;45.50;;;;;;5022248;28;20461;-86
2023/05/26 14:56:54;;;;;;;6.10;2.20;;;23.90;45.70;;;;;;5025507;28;21008;-86
2023/05/26 14:59:45;;;;;;;5.30;3.00;;;23.90;46.30;;;;;;5014662;28;20478;-87
2023/05/26 15:02:45;;;;;;;6.80;3.03;;;24.00;47.30;;;;;;5012905;28;20448;-84
2023/05/26 15:05:43;;;;;;;5.20;2.80;;;24.30;46.50;;;;;;5014750;28;20509;-85
2023/05/26 15:11:33;;;;;;;11.70;3.90;;;24.10;46.80;;;;;;5016382;28;20488;-87
2023/05/26 15:14:29;;;;;;;9.10;3.60;;;24.20;46.60;;;;;;5025150;28;20468;-87
2023/05/26 15:17:20;;;;;;;6.47;3.20;;;24.20;46.30;;;;;;5036492;28;20537;-87
2023/05/26 15:27:32;;;;;;;5.87;3.20;;;23.70;44.50;;;;;;5255546;23;20533;-87
2023/05/26 15:30:27;;;;;;;3.70;2.10;;;23.70;44.80;;;;;;5031656;28;20459;-85
2023/05/26 15:33:30;;;;;;;6.30;2.73;;;23.90;45.30;;;;;;5030926;28;20918;-85
2023/05/26 15:36:48;;;;;;;4.07;2.10;;;23.70;45.10;;;;;;5020641;28;20543;-84
2023/05/26 15:39:22;;;;;;;5.43;2.00;;;23.70;43.80;;;;;;5042144;28;20716;-83
2023/05/26 15:41:53;;;;;;;7.00;2.83;;;23.70;43.40;;;;;;5023631;28;20456;-84
2023/05/26 15:44:25;;;;;;;6.70;2.57;;;23.60;43.90;;;;;;5028397;28;20428;-84